ASN logo
ASN Wikibase Occurrence # 230076
Last updated: 29 October 2019
This information is added by users of ASN. Neither ASN nor the Flight Safety Foundation are responsible for the completeness or correctness of this information. If you feel this information is incomplete or incorrect, you can submit corrected information.

Date:20-OCT-2019
Time:11:35 LT
Type:Silhouette image of generic TL20 model; specific model in this crash may look slightly different
TL-2000 STING carbon
Owner/operator:Private
Registration: not registere
C/n / msn:
Fatalities:Fatalities: 1 / Occupants: 2
Other fatalities:0
Aircraft damage: Written off (damaged beyond repair)
Location:Niihari, Kasumigaura city, Ibaraki prefecture -   Japan
Phase: Unknown
Nature:Private
Departure airport:
Destination airport:
Narrative:
An ultralight plane crashed under unknown circumstances. The plane was consumed by post impact fire. The pilot sustained fatal injury and the other occupant received slight injuries. JTSB launched an investigation.
On 25th October, it was revealed that the pilot had taken no appropriate legal permission to fly his plane at the time of the accident. The accident plane might be a homemade one.

METAR/SPECI reports at Ibaraki Airbase (about 15km NNE of the accident site) around accident
time (0235UTC):
RJAH 200224Z 07011KT 040V110 9999 FEW012 SCT015 22/16 Q1017
RMK 1CU012 4CU015 A3004=
RJAH 200300Z 08010KT 030V100 9999 FEW012 SCT080 22/15 Q1017
RMK 2CU012 3AC080 A3004=

Sources:

https://headlines.yahoo.co.jp/hl?a=20191020-00050115-yom-soci
https://headlines.yahoo.co.jp/hl?a=20191020-00000032-kyodonews-soci
https://headlines.yahoo.co.jp/hl?a=20191020-00000019-asahi-soci
https://headlines.yahoo.co.jp/hl?a=20191020-00000035-jij-soci
https://headlines.yahoo.co.jp/hl?a=20191020-00010010-houdoukvq-soci
https://headlines.yahoo.co.jp/hl?a=20191020-00000547-san-soci
https://headlines.yahoo.co.jp/hl?a=20191025-00000118-kyodonews-soci
https://jtsb.mlit.go.jp/jtsb/aircraft/detail2.php?id=2254


Revision history:

Date/timeContributorUpdates
20-Oct-2019 11:56 isamuel Added
25-Oct-2019 08:25 isamuel Updated [Source, Narrative]
29-Oct-2019 12:53 isamuel Updated [Aircraft type, Registration, Source]

Corrections or additions? ... Edit this accident description